createdAt,value
2022-12-18T00:01:23.525Z,-2.04
2022-12-18T00:03:53.180Z,-2.18
2022-12-18T00:06:21.780Z,-2.22
2022-12-18T00:08:49.849Z,-2.25
2022-12-18T00:11:19.088Z,-2.23
2022-12-18T00:13:46.897Z,-2.13
2022-12-18T00:16:16.391Z,-2.32
2022-12-18T00:18:44.497Z,-2.46
2022-12-18T00:21:14.559Z,-2.69
2022-12-18T00:23:43.750Z,-2.43
2022-12-18T00:26:13.592Z,-2.32
2022-12-18T00:28:41.211Z,-2.65
2022-12-18T00:31:10.625Z,-2.89
2022-12-18T00:33:39.142Z,-2.45
2022-12-18T00:36:09.193Z,-2.36
2022-12-18T00:38:38.489Z,-2.34
2022-12-18T00:41:06.916Z,-2.45
2022-12-18T00:43:35.198Z,-2.48
2022-12-18T00:46:03.286Z,-2.54
2022-12-18T00:48:31.139Z,-2.67
2022-12-18T00:50:58.900Z,-2.72
2022-12-18T00:53:26.601Z,-2.71
2022-12-18T00:55:55.598Z,-2.68
2022-12-18T00:58:23.238Z,-2.90
2022-12-18T01:00:51.060Z,-2.79
2022-12-18T01:03:18.776Z,-2.80
2022-12-18T01:05:46.554Z,-2.89
2022-12-18T01:08:14.231Z,-3.00
2022-12-18T01:10:42.772Z,-3.05
2022-12-18T01:13:11.816Z,-3.04
2022-12-18T01:15:39.452Z,-2.91
2022-12-18T01:18:07.180Z,-2.96
2022-12-18T01:20:35.056Z,-3.00
2022-12-18T01:23:02.765Z,-3.03
2022-12-18T01:25:30.424Z,-2.94
2022-12-18T01:27:58.055Z,-3.00
2022-12-18T01:30:27.090Z,-3.00
2022-12-18T01:32:54.874Z,-3.20
2022-12-18T01:35:22.582Z,-3.06
2022-12-18T01:37:50.285Z,-3.09
2022-12-18T01:40:18.029Z,-3.10
2022-12-18T01:42:45.657Z,-3.13
2022-12-18T01:45:31.031Z,-2.99
2022-12-18T01:48:00.315Z,-3.01
2022-12-18T01:50:32.120Z,-3.08
2022-12-18T01:53:02.619Z,-3.00
2022-12-18T01:55:32.694Z,-3.11
2022-12-18T01:58:01.695Z,-3.23
2022-12-18T02:00:31.057Z,-3.13
2022-12-18T02:02:58.951Z,-3.23
2022-12-18T02:05:34.624Z,-3.13
2022-12-18T02:08:09.321Z,-3.27
2022-12-18T02:10:43.103Z,-3.23
2022-12-18T02:13:15.253Z,-3.32
2022-12-18T02:15:47.398Z,-3.31
2022-12-18T02:18:19.731Z,-3.30
2022-12-18T02:20:50.147Z,-3.42
2022-12-18T02:23:27.680Z,-3.59
2022-12-18T02:26:08.996Z,-3.60
2022-12-18T02:28:39.220Z,-3.66
2022-12-18T02:31:08.845Z,-3.55
2022-12-18T02:33:38.334Z,-3.42
2022-12-18T02:36:06.979Z,-3.44
2022-12-18T02:38:35.858Z,-3.54
2022-12-18T02:41:06.689Z,-3.49
2022-12-18T02:43:34.372Z,-3.51
2022-12-18T02:46:03.173Z,-3.51
2022-12-18T02:48:33.369Z,-3.50
2022-12-18T02:51:06.684Z,-3.47
2022-12-18T02:53:39.165Z,-3.62
2022-12-18T02:56:13.118Z,-3.62
2022-12-18T02:58:47.572Z,-3.61
2022-12-18T03:01:18.876Z,-3.44
2022-12-18T03:03:50.055Z,-3.35
2022-12-18T03:06:23.208Z,-3.35
2022-12-18T03:08:54.767Z,-3.30
2022-12-18T03:11:40.564Z,-3.50
2022-12-18T03:14:09.164Z,-3.54
2022-12-18T03:16:37.959Z,-3.17
2022-12-18T03:19:09.033Z,-3.22
2022-12-18T03:21:40.486Z,-3.01
2022-12-18T03:24:10.297Z,-2.87
2022-12-18T03:26:41.960Z,-2.88
2022-12-18T03:29:11.812Z,-2.91
2022-12-18T03:31:40.142Z,-2.80
2022-12-18T03:34:12.109Z,-2.95
2022-12-18T03:36:39.840Z,-2.68
2022-12-18T03:39:07.617Z,-2.85
2022-12-18T03:41:45.026Z,-2.78
2022-12-18T03:44:15.357Z,-2.71
2022-12-18T03:46:47.476Z,-2.66
2022-12-18T03:49:19.580Z,-2.67
2022-12-18T03:51:51.479Z,-2.70
2022-12-18T03:54:19.565Z,-2.68
2022-12-18T03:56:50.733Z,-2.90
2022-12-18T03:59:19.035Z,-3.06
2022-12-18T04:01:48.814Z,-3.08
2022-12-18T04:04:17.477Z,-3.06
2022-12-18T04:06:45.985Z,-3.07
2022-12-18T04:09:14.087Z,-3.27
2022-12-18T04:11:42.182Z,-3.30
2022-12-18T04:14:17.374Z,-3.33
2022-12-18T04:16:45.913Z,-3.26
2022-12-18T04:19:13.616Z,-3.20
2022-12-18T04:21:41.259Z,-2.99
2022-12-18T04:24:09.342Z,-3.06
2022-12-18T04:26:37.083Z,-3.05
2022-12-18T04:29:04.824Z,-3.18
2022-12-18T04:31:33.892Z,-3.28
2022-12-18T04:34:01.721Z,-3.29
2022-12-18T04:36:29.552Z,-3.45
2022-12-18T04:38:57.452Z,-3.54
2022-12-18T04:41:25.164Z,-3.48
2022-12-18T04:43:52.792Z,-3.64
2022-12-18T04:46:20.545Z,-3.92
2022-12-18T04:48:49.700Z,-4.04
2022-12-18T04:51:19.838Z,-4.09
2022-12-18T04:53:50.942Z,-3.91
2022-12-18T04:56:18.859Z,-3.97
2022-12-18T04:58:46.796Z,-3.82
2022-12-18T05:01:16.522Z,-4.04
2022-12-18T05:03:45.346Z,-4.13
2022-12-18T05:06:14.555Z,-4.14
2022-12-18T05:08:42.235Z,-4.18
2022-12-18T05:11:12.331Z,-3.99
2022-12-18T05:13:40.433Z,-3.87
2022-12-18T05:16:09.424Z,-3.92
2022-12-18T05:18:37.347Z,-3.92
2022-12-18T05:21:05.559Z,-3.81
2022-12-18T05:23:37.552Z,-4.11
2022-12-18T05:26:08.728Z,-4.01
2022-12-18T05:28:37.928Z,-4.17
2022-12-18T05:31:06.890Z,-4.10
2022-12-18T05:33:36.201Z,-4.10
2022-12-18T05:36:05.478Z,-4.25
2022-12-18T05:38:36.164Z,-4.11
2022-12-18T05:41:04.214Z,-4.36
2022-12-18T05:43:32.071Z,-4.22
2022-12-18T05:45:59.768Z,-4.21
2022-12-18T05:48:27.412Z,-4.26
2022-12-18T05:50:55.059Z,-4.25
2022-12-18T05:53:22.859Z,-4.22
2022-12-18T05:55:51.913Z,-4.39
2022-12-18T05:58:19.623Z,-4.39
2022-12-18T06:00:48.340Z,-4.34
2022-12-18T06:03:16.214Z,-4.65
2022-12-18T06:05:45.969Z,-4.42
2022-12-18T06:08:14.429Z,-4.52
2022-12-18T06:10:42.717Z,-4.62
2022-12-18T06:13:11.713Z,-4.27
2022-12-18T06:15:39.892Z,-4.41
2022-12-18T06:18:07.543Z,-4.43
2022-12-18T06:20:37.531Z,-4.69
2022-12-18T06:23:05.588Z,-4.50
2022-12-18T06:25:33.288Z,-4.32
2022-12-18T06:28:00.997Z,-4.22
2022-12-18T06:30:30.035Z,-4.10
2022-12-18T06:32:57.691Z,-4.28
2022-12-18T06:35:25.362Z,-4.25
2022-12-18T06:37:53.067Z,-4.27
2022-12-18T06:40:20.868Z,-4.25
2022-12-18T06:42:48.995Z,-4.31
2022-12-18T06:45:16.924Z,-4.20
2022-12-18T06:47:45.903Z,-4.40
2022-12-18T06:50:14.351Z,-4.41
2022-12-18T06:52:42.065Z,-4.28
2022-12-18T06:55:11.289Z,-4.30
2022-12-18T06:57:39.542Z,-4.29
2022-12-18T07:00:08.834Z,-4.30
2022-12-18T07:02:36.644Z,-4.37
2022-12-18T07:05:10.672Z,-4.27
2022-12-18T07:07:39.043Z,-4.39
2022-12-18T07:10:07.477Z,-4.17
2022-12-18T07:12:35.172Z,-4.27
2022-12-18T07:15:02.848Z,-4.63
2022-12-18T07:17:30.863Z,-4.35
2022-12-18T07:19:58.516Z,-4.67
2022-12-18T07:22:28.433Z,-4.51
2022-12-18T07:24:56.220Z,-4.32
2022-12-18T07:27:23.989Z,-4.27
2022-12-18T07:29:52.281Z,-4.36
2022-12-18T07:32:20.040Z,-4.11
2022-12-18T07:34:47.722Z,-4.58
2022-12-18T07:37:15.360Z,-4.02
2022-12-18T07:39:44.363Z,-4.59
2022-12-18T07:42:29.368Z,-4.26
2022-12-18T07:44:57.084Z,-4.32
2022-12-18T07:47:24.867Z,-4.28
2022-12-18T07:49:52.564Z,-4.31
2022-12-18T07:52:25.623Z,-4.11
2022-12-18T07:54:54.922Z,-4.21
2022-12-18T07:57:48.900Z,-4.39
2022-12-18T08:00:11.321Z,-4.18
2022-12-18T08:02:39.039Z,-4.47
2022-12-18T08:05:07.355Z,-3.74
2022-12-18T08:07:34.987Z,-4.25
2022-12-18T08:10:04.079Z,-3.80
2022-12-18T08:12:31.803Z,-3.70
2022-12-18T08:14:59.451Z,-3.84
2022-12-18T08:17:27.189Z,-3.48
2022-12-18T08:19:54.822Z,-3.61
2022-12-18T08:22:22.486Z,-3.71
2022-12-18T08:24:50.132Z,-3.55
2022-12-18T08:27:34.621Z,-3.36
2022-12-18T08:30:02.320Z,-3.65
2022-12-18T08:32:30.350Z,-3.53
2022-12-18T08:34:58.039Z,-3.48
2022-12-18T08:37:25.687Z,-3.31
2022-12-18T08:39:53.328Z,-3.41
2022-12-18T08:42:39.937Z,-3.56
2022-12-18T08:45:08.676Z,-3.62
2022-12-18T08:47:36.418Z,-3.62
2022-12-18T08:50:04.313Z,-3.64
2022-12-18T08:52:33.760Z,-3.42
2022-12-18T08:55:01.635Z,-3.44
2022-12-18T08:57:30.659Z,-3.37
2022-12-18T08:59:58.329Z,-3.21
2022-12-18T09:02:26.118Z,-3.26
2022-12-18T09:04:57.331Z,-2.78
2022-12-18T09:07:25.518Z,-2.93
2022-12-18T09:09:53.167Z,-2.76
2022-12-18T09:12:20.891Z,-2.88
2022-12-18T09:14:49.948Z,-2.65
2022-12-18T09:17:17.647Z,-2.64
2022-12-18T09:19:45.335Z,-2.44
2022-12-18T09:22:13.027Z,-2.59
2022-12-18T09:24:40.881Z,-1.98
2022-12-18T09:27:08.609Z,-2.04
2022-12-18T09:29:36.438Z,-1.95
2022-12-18T09:32:06.001Z,-2.57
2022-12-18T09:34:33.717Z,-2.34
2022-12-18T09:37:01.429Z,-2.06
2022-12-18T09:39:29.039Z,-1.85
2022-12-18T09:41:58.351Z,-1.37
2022-12-18T09:44:28.120Z,-1.65
2022-12-18T09:47:03.311Z,-1.52
2022-12-18T09:49:34.564Z,-1.67
2022-12-18T09:52:05.950Z,-1.25
2022-12-18T09:54:38.770Z,-1.26
2022-12-18T09:57:06.715Z,-1.47
2022-12-18T09:59:37.562Z,-0.88
2022-12-18T10:02:16.170Z,-0.47
2022-12-18T10:04:45.666Z,-0.92
2022-12-18T10:07:17.825Z,-1.05
2022-12-18T10:09:53.175Z,-0.66
2022-12-18T10:12:25.989Z,-0.95
2022-12-18T10:14:56.033Z,-1.07
2022-12-18T10:17:28.881Z,-1.05
2022-12-18T10:20:00.664Z,-0.73
2022-12-18T10:22:37.008Z,-0.66
2022-12-18T10:25:07.987Z,-0.84
2022-12-18T10:27:35.835Z,-0.59
2022-12-18T10:30:07.227Z,-1.07
2022-12-18T10:32:35.106Z,-1.11
2022-12-18T10:35:04.147Z,-0.63
2022-12-18T10:37:32.119Z,-0.02
2022-12-18T10:40:15.473Z,-0.04
2022-12-18T10:42:47.844Z,-0.46
2022-12-18T10:45:18.440Z,-0.59
2022-12-18T10:47:47.587Z,-0.09
2022-12-18T10:50:46.770Z,0.11
2022-12-18T10:53:21.738Z,0.39
2022-12-18T10:55:49.802Z,0.53
2022-12-18T10:58:38.768Z,1.01
2022-12-18T11:01:10.441Z,1.06
2022-12-18T11:03:39.363Z,0.76
2022-12-18T11:06:10.966Z,0.71
2022-12-18T11:08:39.299Z,0.64
2022-12-18T11:11:17.091Z,0.96
2022-12-18T11:13:55.735Z,0.35
2022-12-18T11:16:24.873Z,0.36
2022-12-18T11:18:52.674Z,0.87
2022-12-18T11:21:21.781Z,0.46
2022-12-18T11:23:52.052Z,1.11
2022-12-18T11:26:20.041Z,1.05
2022-12-18T11:28:49.610Z,1.09
2022-12-18T11:31:24.021Z,0.93
2022-12-18T11:34:27.351Z,0.80
2022-12-18T11:36:50.328Z,1.19
2022-12-18T11:39:21.250Z,0.92
2022-12-18T11:42:13.396Z,0.85
2022-12-18T11:44:47.118Z,0.94
2022-12-18T11:47:21.708Z,0.80
2022-12-18T11:49:51.812Z,1.25
2022-12-18T11:52:23.551Z,1.08
2022-12-18T11:54:54.558Z,1.30
2022-12-18T11:57:35.052Z,1.25
2022-12-18T12:00:06.917Z,1.33
2022-12-18T12:02:50.249Z,1.30
2022-12-18T12:05:28.668Z,1.48
2022-12-18T12:08:00.852Z,1.36
2022-12-18T12:10:39.914Z,0.75
2022-12-18T12:13:20.067Z,1.71
2022-12-18T12:15:54.900Z,1.68
2022-12-18T12:18:28.237Z,1.75
2022-12-18T12:21:01.434Z,2.03
2022-12-18T12:23:39.552Z,1.48
2022-12-18T12:26:09.744Z,1.52
2022-12-18T12:28:50.306Z,1.47
2022-12-18T12:31:26.453Z,2.55
2022-12-18T12:34:00.854Z,1.34
2022-12-18T12:36:34.321Z,1.88
2022-12-18T12:39:08.410Z,2.31
2022-12-18T12:41:56.768Z,2.22
2022-12-18T12:44:26.536Z,2.58
2022-12-18T12:46:57.469Z,2.61
2022-12-18T12:49:28.525Z,2.11
2022-12-18T12:52:04.488Z,2.33
2022-12-18T12:54:34.847Z,1.92
2022-12-18T12:57:08.898Z,2.16
2022-12-18T12:59:41.078Z,1.94
2022-12-18T13:02:19.078Z,2.75
2022-12-18T13:04:51.660Z,2.73
2022-12-18T13:07:25.489Z,2.20
2022-12-18T13:10:20.898Z,2.35
2022-12-18T13:12:58.114Z,2.25
2022-12-18T13:15:29.445Z,1.96
2022-12-18T13:18:14.200Z,2.66
2022-12-18T13:20:47.837Z,1.90
2022-12-18T13:23:35.210Z,2.39
2022-12-18T13:26:33.716Z,2.22
2022-12-18T13:29:02.939Z,2.18
2022-12-18T13:32:10.814Z,1.68
2022-12-18T13:34:38.762Z,2.33
2022-12-18T13:37:42.486Z,1.84
2022-12-18T13:40:54.948Z,1.97
2022-12-18T13:43:29.681Z,1.61
2022-12-18T13:46:09.073Z,2.05
2022-12-18T13:48:39.374Z,2.11
2022-12-18T13:51:09.022Z,1.94
2022-12-18T13:53:40.803Z,1.50
2022-12-18T13:56:09.327Z,1.13
2022-12-18T13:58:38.610Z,1.35
2022-12-18T14:01:06.834Z,1.58
2022-12-18T14:03:35.809Z,1.76
2022-12-18T14:06:06.754Z,1.67
2022-12-18T14:08:39.884Z,1.54
2022-12-18T14:11:08.854Z,1.67
2022-12-18T14:13:43.529Z,1.95
2022-12-18T14:16:16.719Z,2.10
2022-12-18T14:18:47.521Z,1.43
2022-12-18T14:21:20.937Z,1.56
2022-12-18T14:23:48.618Z,1.55
2022-12-18T14:26:24.648Z,1.80
2022-12-18T14:28:54.838Z,1.08
2022-12-18T14:31:24.995Z,1.52
2022-12-18T14:33:53.176Z,1.58
2022-12-18T14:36:22.413Z,1.61
2022-12-18T14:38:51.866Z,1.95
2022-12-18T14:41:20.684Z,1.60
2022-12-18T14:43:50.330Z,1.39
2022-12-18T14:46:31.363Z,1.44
2022-12-18T14:48:59.469Z,1.36
2022-12-18T14:51:30.676Z,2.01
2022-12-18T14:53:59.640Z,1.98
2022-12-18T14:56:28.711Z,1.98
2022-12-18T14:58:58.136Z,1.97
2022-12-18T15:01:32.315Z,1.51
2022-12-18T15:04:01.236Z,1.91
2022-12-18T15:06:32.613Z,1.57
2022-12-18T15:09:02.665Z,1.65
2022-12-18T15:11:35.793Z,1.45
2022-12-18T15:14:38.969Z,1.48
2022-12-18T15:17:17.463Z,1.70
2022-12-18T15:19:46.205Z,1.48
2022-12-18T15:22:21.173Z,1.63
2022-12-18T15:24:50.294Z,1.53
2022-12-18T15:27:30.790Z,1.46
2022-12-18T15:30:03.128Z,1.57
2022-12-18T15:32:32.181Z,1.81
2022-12-18T15:35:09.892Z,1.58
2022-12-18T15:37:44.953Z,1.91
2022-12-18T15:40:15.306Z,1.80
2022-12-18T15:43:03.344Z,1.63
2022-12-18T15:45:31.070Z,1.62
2022-12-18T15:48:00.092Z,1.72
2022-12-18T15:50:27.934Z,1.52
2022-12-18T15:52:56.927Z,2.14
2022-12-18T15:55:43.496Z,2.09
2022-12-18T15:58:12.868Z,1.99
2022-12-18T16:00:42.369Z,2.16
2022-12-18T16:03:12.227Z,2.29
2022-12-18T16:05:40.287Z,1.70
2022-12-18T16:08:07.952Z,2.01
2022-12-18T16:10:35.704Z,1.98
2022-12-18T16:13:03.394Z,1.77
2022-12-18T16:15:31.143Z,2.11
2022-12-18T16:17:58.798Z,2.03
2022-12-18T16:20:27.870Z,1.69
2022-12-18T16:22:55.603Z,1.70
2022-12-18T16:25:25.194Z,2.03
2022-12-18T16:27:53.544Z,1.80
2022-12-18T16:30:22.768Z,1.46
2022-12-18T16:32:50.588Z,1.77
2022-12-18T16:35:18.537Z,1.70
2022-12-18T16:37:47.577Z,1.80
2022-12-18T16:40:17.727Z,1.76
2022-12-18T16:42:46.832Z,1.83
2022-12-18T16:45:16.901Z,2.03
2022-12-18T16:47:44.750Z,1.72
2022-12-18T16:50:12.843Z,2.29
2022-12-18T16:52:40.681Z,1.97
2022-12-18T16:55:10.629Z,1.92
2022-12-18T16:57:38.324Z,2.18
2022-12-18T17:00:07.467Z,2.27
2022-12-18T17:02:35.324Z,1.88
2022-12-18T17:05:03.204Z,2.00
2022-12-18T17:07:30.851Z,2.24
2022-12-18T17:09:58.573Z,1.82
2022-12-18T17:12:27.793Z,2.14
2022-12-18T17:14:55.497Z,1.41
2022-12-18T17:17:23.962Z,1.91
2022-12-18T17:19:51.996Z,1.89
2022-12-18T17:22:20.160Z,1.73
2022-12-18T17:24:48.227Z,2.40
2022-12-18T17:27:15.934Z,2.33
2022-12-18T17:29:47.877Z,1.77
2022-12-18T17:32:16.215Z,2.04
2022-12-18T17:34:43.915Z,1.90
2022-12-18T17:37:11.555Z,2.06
2022-12-18T17:39:39.802Z,1.97
2022-12-18T17:42:08.551Z,2.03
2022-12-18T17:44:38.428Z,1.76
2022-12-18T17:47:07.551Z,1.95
2022-12-18T17:49:35.330Z,2.19
2022-12-18T17:52:03.000Z,2.45
2022-12-18T17:54:30.682Z,2.33
2022-12-18T17:56:58.348Z,2.35
2022-12-18T17:59:26.021Z,2.59
2022-12-18T18:01:53.805Z,2.62
2022-12-18T18:04:23.065Z,2.48
2022-12-18T18:06:50.829Z,1.89
2022-12-18T18:09:18.461Z,2.20
2022-12-18T18:12:04.139Z,2.14
2022-12-18T18:14:32.333Z,1.94
2022-12-18T18:17:04.795Z,1.84
2022-12-18T18:19:35.021Z,2.53
2022-12-18T18:22:03.083Z,2.09
2022-12-18T18:24:31.724Z,2.40
2022-12-18T18:27:00.524Z,2.81
2022-12-18T18:29:30.277Z,2.36
2022-12-18T18:31:58.303Z,2.44
2022-12-18T18:34:27.102Z,2.51
2022-12-18T18:36:59.100Z,2.50
2022-12-18T18:39:26.934Z,2.63
2022-12-18T18:41:54.819Z,2.90
2022-12-18T18:44:25.760Z,3.00
2022-12-18T18:46:54.784Z,2.89
2022-12-18T18:49:24.124Z,2.71
2022-12-18T18:51:52.130Z,3.11
2022-12-18T18:54:22.147Z,2.87
2022-12-18T18:59:38.009Z,2.64
2022-12-18T19:02:06.064Z,3.03
2022-12-18T19:04:34.425Z,3.22
2022-12-18T19:07:02.263Z,2.31
2022-12-18T19:09:31.356Z,2.78
2022-12-18T19:12:16.637Z,3.14
2022-12-18T19:14:44.870Z,2.69
2022-12-18T19:17:12.520Z,2.98
2022-12-18T19:19:40.687Z,2.62
2022-12-18T19:22:09.410Z,2.70
2022-12-18T19:24:38.581Z,2.79
2022-12-18T19:27:06.299Z,2.77
2022-12-18T19:29:33.965Z,2.97
2022-12-18T19:32:02.104Z,3.11
2022-12-18T19:34:29.868Z,3.10
2022-12-18T19:36:59.935Z,3.40
2022-12-18T19:39:28.002Z,3.15
2022-12-18T19:41:57.021Z,3.41
2022-12-18T19:44:24.661Z,2.95
2022-12-18T19:46:52.566Z,2.88
2022-12-18T19:49:23.191Z,3.34
2022-12-18T19:51:50.891Z,3.22
2022-12-18T19:54:18.781Z,2.95
2022-12-18T19:56:47.181Z,3.37
2022-12-18T19:59:16.229Z,3.10
2022-12-18T20:01:43.964Z,3.09
2022-12-18T20:04:11.776Z,2.96
2022-12-18T20:06:48.063Z,3.12
2022-12-18T20:09:15.863Z,3.34
2022-12-18T20:11:44.353Z,3.06
2022-12-18T20:14:12.359Z,3.24
2022-12-18T20:16:41.769Z,3.12
2022-12-18T20:19:11.600Z,3.20
2022-12-18T20:21:39.860Z,3.24
2022-12-18T20:24:08.701Z,3.47
2022-12-18T20:26:36.473Z,3.40
2022-12-18T20:29:04.332Z,3.55
2022-12-18T20:31:32.361Z,3.35
2022-12-18T20:34:03.755Z,3.30
2022-12-18T20:36:34.289Z,3.22
2022-12-18T20:39:05.433Z,3.33
2022-12-18T20:41:38.001Z,3.51
2022-12-18T20:44:08.750Z,3.58
2022-12-18T20:46:49.898Z,3.63
2022-12-18T20:49:18.990Z,3.68
2022-12-18T20:51:47.069Z,3.85
2022-12-18T20:54:14.788Z,3.61
2022-12-18T20:56:42.431Z,3.87
2022-12-18T20:59:10.121Z,3.85
2022-12-18T21:01:38.894Z,3.80
2022-12-18T21:04:09.160Z,3.70
2022-12-18T21:06:38.256Z,3.43
2022-12-18T21:09:05.927Z,3.28
2022-12-18T21:11:52.017Z,3.04
2022-12-18T21:14:21.591Z,3.25
2022-12-18T21:16:49.332Z,3.16
2022-12-18T21:19:19.086Z,3.57
2022-12-18T21:21:48.431Z,3.35
2022-12-18T21:24:16.696Z,3.60
2022-12-18T21:26:46.359Z,3.61
2022-12-18T21:29:16.567Z,3.77
2022-12-18T21:31:44.433Z,3.73
2022-12-18T21:34:16.185Z,3.63
2022-12-18T21:36:43.868Z,3.45
2022-12-18T21:39:13.201Z,3.25
2022-12-18T21:41:58.730Z,3.65
2022-12-18T21:44:27.780Z,3.97
2022-12-18T21:47:00.589Z,3.56
2022-12-18T21:49:33.735Z,3.44
2022-12-18T21:52:02.256Z,3.77
2022-12-18T21:54:31.264Z,3.28
2022-12-18T21:57:00.321Z,3.69
2022-12-18T21:59:29.957Z,3.28
2022-12-18T22:01:58.827Z,3.82
2022-12-18T22:04:27.305Z,3.74
2022-12-18T22:06:55.800Z,3.54
2022-12-18T22:09:24.767Z,3.67
2022-12-18T22:11:54.880Z,3.62
2022-12-18T22:14:23.336Z,3.99
2022-12-18T22:16:52.343Z,3.44
2022-12-18T22:19:21.087Z,3.16
2022-12-18T22:21:50.035Z,3.55
2022-12-18T22:24:19.649Z,3.40
2022-12-18T22:26:47.639Z,2.86
2022-12-18T22:29:35.561Z,3.18
2022-12-18T22:32:03.524Z,3.43
2022-12-18T22:34:34.486Z,3.01
2022-12-18T22:37:04.593Z,3.53
2022-12-18T22:39:32.815Z,3.33
2022-12-18T22:42:00.527Z,3.48
2022-12-18T22:44:29.960Z,3.48
2022-12-18T22:47:06.218Z,3.30
2022-12-18T22:49:35.923Z,3.44
2022-12-18T22:52:03.987Z,3.22
2022-12-18T22:54:31.732Z,3.24
2022-12-18T22:56:59.395Z,3.79
2022-12-18T22:59:27.107Z,3.63
2022-12-18T23:01:58.632Z,3.53
2022-12-18T23:04:30.188Z,3.56
2022-12-18T23:07:04.886Z,3.46
2022-12-18T23:09:33.098Z,3.14
2022-12-18T23:12:01.197Z,2.81
2022-12-18T23:14:29.272Z,3.20
2022-12-18T23:16:58.548Z,3.03
2022-12-18T23:19:26.268Z,3.40
2022-12-18T23:21:54.545Z,3.46
2022-12-18T23:24:24.769Z,3.58
2022-12-18T23:26:52.549Z,3.94
2022-12-18T23:29:20.484Z,3.28
2022-12-18T23:31:48.282Z,3.58
2022-12-18T23:34:17.860Z,3.67
2022-12-18T23:36:46.955Z,3.70
2022-12-18T23:39:28.384Z,3.81
2022-12-18T23:41:57.744Z,3.53
2022-12-18T23:44:25.668Z,3.35
2022-12-18T23:46:53.471Z,3.53
2022-12-18T23:49:22.632Z,3.76
2022-12-18T23:51:50.461Z,3.67
2022-12-18T23:54:18.190Z,3.86
2022-12-18T23:56:50.951Z,3.09
2022-12-18T23:59:23.958Z,3.86
